Forside
METAR-TAF:

METAR-TAF

Lufthavne :

Merrill Municipal Airport

Merrill, Wisconsin, USA

Breddekreds: 45-11N, længdekreds: 089-42W, højde: 401 m

Aktuelle vejr

Denne rapport blev lavet for 26 minutter siden, kl. 06:55 UTC
Vind 3 kt fra øst
Temperatur 6°C
Fugtighed 75%
Tryk 1022 hPa
Sigt: 16.1 km
skyfri

METAR: KRRL 210655Z AUTO 10003KT 10SM CLR 06/02 A3017 RMK AO2 T00580018 TSNO

Tid: 02:21 (07:21 UTC)


TAF: fraværende

Vejrobservationer og prognoser fra mere end 4000 lufthavne (METAR og TAF).

De gule og røde prikker repræsenterer de meteorologiske stationer.

Flyt musen over at se navnet på stationen.

Så klik over at se vejr observationer og prognoser.

At skifte det kort: Klik på de grønne knapper med et sort kors for at zoome ind; på den grønne knap med en bindestreg for at zoome ud; eller på de grønne pile for tilstødende kort.


METAR-TAF: